createdAt,value
2019-05-02T00:00:11.902Z,99.90
2019-05-02T00:02:40.818Z,99.90
2019-05-02T00:05:11.415Z,99.90
2019-05-02T00:07:42.300Z,99.90
2019-05-02T00:10:14.306Z,99.90
2019-05-02T00:12:43.858Z,99.90
2019-05-02T00:15:12.613Z,99.90
2019-05-02T00:17:41.182Z,99.90
2019-05-02T00:20:10.143Z,99.90
2019-05-02T00:22:38.576Z,99.90
2019-05-02T00:25:11.093Z,99.90
2019-05-02T00:27:38.883Z,99.90
2019-05-02T00:30:08.820Z,99.90
2019-05-02T00:32:37.258Z,99.90
2019-05-02T00:35:06.516Z,99.90
2019-05-02T00:37:35.103Z,99.90
2019-05-02T00:40:05.006Z,99.90
2019-05-02T00:42:33.431Z,99.90
2019-05-02T00:45:01.847Z,99.90
2019-05-02T00:47:49.855Z,99.90
2019-05-02T00:50:18.674Z,99.90
2019-05-02T00:52:47.098Z,99.90
2019-05-02T00:55:15.857Z,99.90
2019-05-02T00:57:44.290Z,99.90
2019-05-02T01:00:18.347Z,99.90
2019-05-02T01:02:54.443Z,99.90
2019-05-02T01:05:22.958Z,99.90
2019-05-02T01:07:51.373Z,99.90
2019-05-02T01:10:21.232Z,99.90
2019-05-02T01:12:50.014Z,99.90
2019-05-02T01:15:18.438Z,99.90
2019-05-02T01:17:46.908Z,99.90
2019-05-02T01:20:15.435Z,99.90
2019-05-02T01:22:47.115Z,99.90
2019-05-02T01:25:15.798Z,99.90
2019-05-02T01:27:46.462Z,99.90
2019-05-02T01:30:25.706Z,99.90
2019-05-02T01:33:06.302Z,99.90
2019-05-02T01:35:45.200Z,99.90
2019-05-02T01:38:21.022Z,99.90
2019-05-02T01:40:53.327Z,99.90
2019-05-02T01:43:25.652Z,99.90
2019-05-02T01:45:54.501Z,99.90
2019-05-02T01:48:23.733Z,99.90
2019-05-02T01:50:52.300Z,99.90
2019-05-02T01:53:20.718Z,99.90
2019-05-02T01:55:51.876Z,99.90
2019-05-02T01:58:20.832Z,99.90
2019-05-02T02:00:49.720Z,99.90
2019-05-02T02:03:18.247Z,99.90
2019-05-02T02:05:46.654Z,99.90
2019-05-02T02:08:15.079Z,99.90
2019-05-02T02:10:43.961Z,99.90
2019-05-02T02:13:12.490Z,99.90
2019-05-02T02:15:40.978Z,99.90
2019-05-02T02:18:09.571Z,99.90
2019-05-02T02:20:45.122Z,99.90
2019-05-02T02:23:17.187Z,99.90
2019-05-02T02:25:47.243Z,99.90
2019-05-02T02:28:15.668Z,99.90
2019-05-02T02:30:44.663Z,99.90
2019-05-02T02:33:13.108Z,99.90
2019-05-02T02:35:49.507Z,99.90
2019-05-02T02:38:11.963Z,99.90
2019-05-02T02:40:40.420Z,99.90
2019-05-02T02:43:30.246Z,99.90
2019-05-02T02:45:57.675Z,99.90
2019-05-02T02:48:25.045Z,99.90
2019-05-02T02:53:34.709Z,99.90
2019-05-02T02:56:06.155Z,99.90
2019-05-02T02:58:44.085Z,99.90
2019-05-02T03:01:05.380Z,99.90
2019-05-02T03:03:35.440Z,99.90
2019-05-02T03:06:05.591Z,99.90
2019-05-02T03:08:44.536Z,99.90
2019-05-02T03:11:08.014Z,99.90
2019-05-02T03:13:51.528Z,99.90
2019-05-02T03:16:18.792Z,99.90
2019-05-02T03:18:47.347Z,99.90
2019-05-02T03:21:20.840Z,99.90
2019-05-02T03:23:46.079Z,99.90
2019-05-02T03:26:15.766Z,99.90
2019-05-02T03:28:44.917Z,99.90
2019-05-02T03:31:24.006Z,99.90
2019-05-02T03:33:54.844Z,99.90
2019-05-02T03:36:29.021Z,99.90
2019-05-02T03:38:44.055Z,99.90
2019-05-02T03:41:13.315Z,99.90
2019-05-02T03:43:43.054Z,99.90
2019-05-02T03:46:13.618Z,99.90
2019-05-02T03:48:41.716Z,99.90
2019-05-02T03:51:20.021Z,99.90
2019-05-02T03:53:40.749Z,99.90
2019-05-02T03:56:11.558Z,99.90
2019-05-02T03:58:39.295Z,99.90
2019-05-02T04:01:07.754Z,99.90
2019-05-02T04:03:40.754Z,99.90
2019-05-02T04:06:06.384Z,99.90
2019-05-02T04:08:36.399Z,99.90
2019-05-02T04:11:17.062Z,99.90
2019-05-02T04:13:45.722Z,99.90
2019-05-02T04:16:15.254Z,99.90
2019-05-02T04:18:54.430Z,99.90
2019-05-02T04:21:15.042Z,99.90
2019-05-02T04:23:44.119Z,99.90
2019-05-02T04:26:14.614Z,99.90
2019-05-02T04:28:45.567Z,99.90
2019-05-02T04:31:13.659Z,99.90
2019-05-02T04:33:42.225Z,99.90
2019-05-02T04:36:15.345Z,99.90
2019-05-02T04:38:46.937Z,99.90
2019-05-02T04:41:11.219Z,99.90
2019-05-02T04:43:40.570Z,99.90
2019-05-02T04:46:18.112Z,99.90
2019-05-02T04:48:44.489Z,99.90
2019-05-02T04:51:16.308Z,99.90
2019-05-02T04:53:45.119Z,99.90
2019-05-02T04:56:10.945Z,99.90
2019-05-02T04:58:40.746Z,99.90
2019-05-02T05:01:10.190Z,99.90
2019-05-02T05:03:38.687Z,99.90
2019-05-02T05:06:11.966Z,99.90
2019-05-02T05:08:41.229Z,99.90
2019-05-02T05:11:07.829Z,99.90
2019-05-02T05:13:37.353Z,99.90
2019-05-02T05:16:08.703Z,99.90
2019-05-02T05:18:37.778Z,99.90
2019-05-02T05:21:10.240Z,99.90
2019-05-02T05:23:38.555Z,99.90
2019-05-02T05:26:07.394Z,99.90
2019-05-02T05:28:40.592Z,99.90
2019-05-02T05:31:07.716Z,99.90
2019-05-02T05:33:37.761Z,99.90
2019-05-02T05:36:08.150Z,99.90
2019-05-02T05:38:40.467Z,99.90
2019-05-02T05:41:08.978Z,99.90
2019-05-02T05:43:38.130Z,99.90
2019-05-02T05:46:10.620Z,99.90
2019-05-02T05:48:40.681Z,99.90
2019-05-02T05:51:07.417Z,99.90
2019-05-02T05:53:37.498Z,99.90
2019-05-02T05:56:07.925Z,99.90
2019-05-02T05:58:39.809Z,99.90
2019-05-02T06:01:10.002Z,99.90
2019-05-02T06:03:41.629Z,99.90
2019-05-02T06:06:09.765Z,99.90
2019-05-02T06:08:37.439Z,99.90
2019-05-02T06:11:05.866Z,99.90
2019-05-02T06:13:34.296Z,99.90
2019-05-02T06:16:03.485Z,99.90
2019-05-02T06:18:36.440Z,99.90
2019-05-02T06:21:03.170Z,99.90
2019-05-02T06:23:36.291Z,99.90
2019-05-02T06:26:07.655Z,99.90
2019-05-02T06:28:36.199Z,99.90
2019-05-02T06:31:07.301Z,99.90
2019-05-02T06:33:33.550Z,99.90
2019-05-02T06:36:02.469Z,99.90
2019-05-02T06:38:31.163Z,99.90
2019-05-02T06:40:59.955Z,99.90
2019-05-02T06:43:28.390Z,99.90
2019-05-02T06:45:57.130Z,99.90
2019-05-02T06:48:25.563Z,99.90
2019-05-02T06:50:53.985Z,99.90
2019-05-02T06:53:22.521Z,99.90
2019-05-02T06:55:50.953Z,99.90
2019-05-02T06:58:19.431Z,99.90
2019-05-02T07:00:57.293Z,99.90
2019-05-02T07:03:18.153Z,99.90
2019-05-02T07:05:49.010Z,99.90
2019-05-02T07:08:16.842Z,99.90
2019-05-02T07:10:45.444Z,99.90
2019-05-02T07:13:15.012Z,99.90
2019-05-02T07:15:51.292Z,99.90
2019-05-02T07:18:21.421Z,99.90
2019-05-02T07:20:49.863Z,99.90
2019-05-02T07:23:18.558Z,99.90
2019-05-02T07:25:47.038Z,99.90
2019-05-02T07:28:15.492Z,99.90
2019-05-02T07:30:44.014Z,99.90
2019-05-02T07:33:12.431Z,99.90
2019-05-02T07:35:40.865Z,99.90
2019-05-02T07:38:09.424Z,99.90
2019-05-02T07:40:37.922Z,99.90
2019-05-02T07:43:06.357Z,99.90
2019-05-02T07:45:34.952Z,99.60
2019-05-02T07:48:03.378Z,97.00
2019-05-02T07:50:31.811Z,93.30
2019-05-02T07:53:04.366Z,87.40
2019-05-02T07:55:35.080Z,88.60
2019-05-02T07:58:02.052Z,87.80
2019-05-02T08:00:32.057Z,77.50
2019-05-02T08:03:01.160Z,76.50
2019-05-02T08:05:30.175Z,79.00
2019-05-02T08:07:58.658Z,76.60
2019-05-02T08:10:27.439Z,68.50
2019-05-02T08:12:55.858Z,64.50
2019-05-02T08:15:24.925Z,68.50
2019-05-02T08:17:53.743Z,76.00
2019-05-02T08:20:23.665Z,80.80
2019-05-02T08:22:52.476Z,73.00
2019-05-02T08:25:20.985Z,67.90
2019-05-02T08:27:51.119Z,65.40
2019-05-02T08:30:21.883Z,65.30
2019-05-02T08:32:50.475Z,61.40
2019-05-02T08:35:18.908Z,56.90
2019-05-02T08:37:47.469Z,57.20
2019-05-02T08:40:16.143Z,60.10
2019-05-02T08:42:44.554Z,56.40
2019-05-02T08:45:13.352Z,52.50
2019-05-02T08:47:41.795Z,53.30
2019-05-02T08:50:10.558Z,53.40
2019-05-02T08:52:42.191Z,49.20
2019-05-02T08:55:10.942Z,50.10
2019-05-02T08:57:39.729Z,51.80
2019-05-02T09:00:10.434Z,49.50
2019-05-02T09:02:41.782Z,49.30
2019-05-02T09:05:09.354Z,51.50
2019-05-02T09:07:39.387Z,50.10
2019-05-02T09:10:08.838Z,48.40
2019-05-02T09:12:42.020Z,46.50
2019-05-02T09:15:08.052Z,46.70
2019-05-02T09:17:39.000Z,47.00
2019-05-02T09:20:14.979Z,45.50
2019-05-02T09:22:37.818Z,46.00
2019-05-02T09:25:08.116Z,42.50
2019-05-02T09:27:36.550Z,45.40
2019-05-02T09:30:12.130Z,44.30
2019-05-02T09:32:41.868Z,45.10
2019-05-02T09:35:11.692Z,40.70
2019-05-02T09:37:41.963Z,43.50
2019-05-02T09:40:15.008Z,40.50
2019-05-02T09:42:43.000Z,42.70
2019-05-02T09:45:16.337Z,41.80
2019-05-02T09:47:55.869Z,41.70
2019-05-02T09:50:20.665Z,45.00
2019-05-02T09:52:47.391Z,43.00
2019-05-02T09:55:17.056Z,41.50
2019-05-02T09:57:45.639Z,43.00
2019-05-02T10:00:36.459Z,45.10
2019-05-02T10:03:05.506Z,44.80
2019-05-02T10:05:34.006Z,46.90
2019-05-02T10:08:06.712Z,47.70
2019-05-02T10:10:37.278Z,45.70
2019-05-02T10:13:02.950Z,43.70
2019-05-02T10:15:32.696Z,42.10
2019-05-02T10:18:08.654Z,42.20
2019-05-02T10:20:36.316Z,37.30
2019-05-02T10:23:02.375Z,38.30
2019-05-02T10:25:38.582Z,40.50
2019-05-02T10:28:02.163Z,42.70
2019-05-02T10:30:35.514Z,44.80
2019-05-02T10:33:02.713Z,48.00
2019-05-02T10:35:38.880Z,48.30
2019-05-02T10:38:03.181Z,48.20
2019-05-02T10:40:32.181Z,45.10
2019-05-02T10:43:02.755Z,46.30
2019-05-02T10:45:32.121Z,46.50
2019-05-02T10:48:02.254Z,47.00
2019-05-02T10:50:35.082Z,49.30
2019-05-02T10:53:11.007Z,47.50
2019-05-02T10:55:33.802Z,43.10
2019-05-02T10:58:02.230Z,43.50
2019-05-02T11:00:32.657Z,42.90
2019-05-02T11:03:14.451Z,39.70
2019-05-02T11:05:44.534Z,39.70
2019-05-02T11:08:12.952Z,40.10
2019-05-02T11:10:42.267Z,42.10
2019-05-02T11:13:12.569Z,40.80
2019-05-02T11:16:01.614Z,42.70
2019-05-02T11:18:40.184Z,40.50
2019-05-02T11:21:06.828Z,41.30
2019-05-02T11:23:32.830Z,42.40
2019-05-02T11:26:01.789Z,41.10
2019-05-02T11:28:32.271Z,39.10
2019-05-02T11:31:02.638Z,39.70
2019-05-02T11:33:32.468Z,39.80
2019-05-02T11:36:02.473Z,41.00
2019-05-02T11:38:31.535Z,42.40
2019-05-02T11:41:02.230Z,44.70
2019-05-02T11:43:32.508Z,43.30
2019-05-02T11:46:05.616Z,43.30
2019-05-02T11:48:31.994Z,44.70
2019-05-02T11:51:02.622Z,42.60
2019-05-02T11:53:32.544Z,41.90
2019-05-02T11:56:03.707Z,43.30
2019-05-02T11:58:32.518Z,42.10
2019-05-02T12:01:05.100Z,42.00
2019-05-02T12:03:36.957Z,44.70
2019-05-02T12:06:06.774Z,44.90
2019-05-02T12:08:33.779Z,43.90
2019-05-02T12:11:03.877Z,45.20
2019-05-02T12:13:32.416Z,46.80
2019-05-02T12:16:02.675Z,46.10
2019-05-02T12:18:32.584Z,46.20
2019-05-02T12:21:02.627Z,45.40
2019-05-02T12:23:32.036Z,45.30
2019-05-02T12:26:02.655Z,44.40
2019-05-02T12:28:32.348Z,45.50
2019-05-02T12:31:02.721Z,46.80
2019-05-02T12:33:33.019Z,47.60
2019-05-02T12:36:02.601Z,48.30
2019-05-02T12:38:32.396Z,48.90
2019-05-02T12:41:02.671Z,49.40
2019-05-02T12:43:31.913Z,49.30
2019-05-02T12:46:02.201Z,47.90
2019-05-02T12:48:32.696Z,47.70
2019-05-02T12:51:01.971Z,44.20
2019-05-02T12:53:32.527Z,45.30
2019-05-02T12:56:02.177Z,46.40
2019-05-02T12:58:32.521Z,45.80
2019-05-02T13:01:02.875Z,46.80
2019-05-02T13:03:39.691Z,47.50
2019-05-02T13:06:08.099Z,48.40
2019-05-02T13:08:38.163Z,48.20
2019-05-02T13:11:08.337Z,49.60
2019-05-02T13:13:36.833Z,49.30
2019-05-02T13:16:05.529Z,50.30
2019-05-02T13:18:37.081Z,49.90
2019-05-02T13:21:08.197Z,50.30
2019-05-02T13:23:46.461Z,49.70
2019-05-02T13:26:19.612Z,50.10
2019-05-02T13:28:45.527Z,50.70
2019-05-02T13:31:27.301Z,49.90
2019-05-02T13:34:06.460Z,50.10
2019-05-02T13:36:51.741Z,50.10
2019-05-02T13:39:24.203Z,51.30
2019-05-02T13:41:52.682Z,51.20
2019-05-02T13:44:23.018Z,51.00
2019-05-02T13:46:53.465Z,51.40
2019-05-02T13:49:22.059Z,51.10
2019-05-02T13:51:52.138Z,51.70
2019-05-02T13:54:22.091Z,51.10
2019-05-02T13:56:52.671Z,52.80
2019-05-02T13:59:22.208Z,51.90
2019-05-02T14:01:53.311Z,52.50
2019-05-02T14:04:23.168Z,53.00
2019-05-02T14:06:52.830Z,52.20
2019-05-02T14:09:25.933Z,52.20
2019-05-02T14:11:59.009Z,51.90
2019-05-02T14:14:27.511Z,52.60
2019-05-02T14:16:55.963Z,54.30
2019-05-02T14:19:24.423Z,53.10
2019-05-02T14:21:52.849Z,53.30
2019-05-02T14:24:23.809Z,53.90
2019-05-02T14:26:52.704Z,53.70
2019-05-02T14:29:21.691Z,53.40
2019-05-02T14:31:51.978Z,55.00
2019-05-02T14:34:40.061Z,54.80
2019-05-02T14:37:08.484Z,54.90
2019-05-02T14:39:36.962Z,53.40
2019-05-02T14:42:05.520Z,54.40
2019-05-02T14:45:01.273Z,54.20
2019-05-02T14:47:04.359Z,52.70
2019-05-02T14:49:32.813Z,53.40
2019-05-02T14:52:02.931Z,52.90
2019-05-02T14:54:32.456Z,51.70
2019-05-02T14:57:05.226Z,50.00
2019-05-02T14:59:34.087Z,51.70
2019-05-02T15:02:07.447Z,51.80
2019-05-02T15:04:38.181Z,50.30
2019-05-02T15:07:05.373Z,51.70
2019-05-02T15:09:36.098Z,50.10
2019-05-02T15:12:13.814Z,50.90
2019-05-02T15:14:35.100Z,49.60
2019-05-02T15:17:04.629Z,50.20
2019-05-02T15:19:33.329Z,50.40
2019-05-02T15:22:02.331Z,50.60
2019-05-02T15:24:33.463Z,50.00
2019-05-02T15:27:05.556Z,49.90
2019-05-02T15:32:05.977Z,50.00
2019-05-02T15:34:46.201Z,50.50
2019-05-02T15:37:09.909Z,50.60
2019-05-02T15:42:08.482Z,50.00
2019-05-02T15:44:36.958Z,50.60
2019-05-02T15:47:07.018Z,50.20
2019-05-02T15:49:41.693Z,51.80
2019-05-02T15:52:09.019Z,50.70
2019-05-02T15:54:37.453Z,51.60
2019-05-02T15:57:06.003Z,51.80
2019-05-02T15:59:42.344Z,52.20
2019-05-02T16:02:06.999Z,52.60
2019-05-02T16:04:37.144Z,52.80
2019-05-02T16:07:08.404Z,53.30
2019-05-02T16:09:36.086Z,54.50
2019-05-02T16:12:05.258Z,54.30
2019-05-02T16:14:36.006Z,54.10
2019-05-02T16:17:04.286Z,53.50
2019-05-02T16:19:34.322Z,54.30
2019-05-02T16:22:06.846Z,54.00
2019-05-02T16:24:34.647Z,53.80
2019-05-02T16:27:03.069Z,54.30
2019-05-02T16:29:31.843Z,53.60
2019-05-02T16:32:09.329Z,53.40
2019-05-02T16:34:57.195Z,54.90
2019-05-02T16:37:25.891Z,53.60
2019-05-02T16:39:54.391Z,54.00
2019-05-02T16:42:22.903Z,54.60
2019-05-02T16:44:52.235Z,54.30
2019-05-02T16:47:22.029Z,54.00
2019-05-02T16:49:53.270Z,54.40
2019-05-02T16:52:22.164Z,54.80
2019-05-02T16:54:52.411Z,55.40
2019-05-02T16:57:22.104Z,54.40
2019-05-02T16:59:54.031Z,54.50
2019-05-02T17:02:21.820Z,55.30
2019-05-02T17:04:52.098Z,54.70
2019-05-02T17:07:22.236Z,55.10
2019-05-02T17:09:52.319Z,55.90
2019-05-02T17:12:20.791Z,55.10
2019-05-02T17:15:07.828Z,55.30
2019-05-02T17:17:36.344Z,55.00
2019-05-02T17:20:07.298Z,56.10
2019-05-02T17:22:37.028Z,56.40
2019-05-02T17:25:07.015Z,55.70
2019-05-02T17:27:35.501Z,55.60
2019-05-02T17:30:06.295Z,55.50
2019-05-02T17:32:37.629Z,55.10
2019-05-02T17:35:09.855Z,55.60
2019-05-02T17:37:40.679Z,55.80
2019-05-02T17:40:07.747Z,55.80
2019-05-02T17:42:36.250Z,56.10
2019-05-02T17:45:09.107Z,56.60
2019-05-02T17:47:37.713Z,56.30
2019-05-02T17:50:17.751Z,57.00
2019-05-02T17:52:44.258Z,57.50
2019-05-02T17:55:12.918Z,57.60
2019-05-02T17:57:42.012Z,57.60
2019-05-02T18:00:16.909Z,58.20
2019-05-02T18:02:47.012Z,58.30
2019-05-02T18:05:15.839Z,58.70
2019-05-02T18:07:44.486Z,59.50
2019-05-02T18:10:17.216Z,59.10
2019-05-02T18:12:47.260Z,59.30
2019-05-02T18:15:14.032Z,59.20
2019-05-02T18:17:42.785Z,59.50
2019-05-02T18:20:12.420Z,60.30
2019-05-02T18:22:45.447Z,59.80
2019-05-02T18:25:16.251Z,60.60
2019-05-02T18:27:42.376Z,60.60
2019-05-02T18:30:17.252Z,60.70
2019-05-02T18:32:44.606Z,61.30
2019-05-02T18:35:13.042Z,61.10
2019-05-02T18:37:42.833Z,61.40
2019-05-02T18:40:11.918Z,62.40
2019-05-02T18:42:42.290Z,63.50
2019-05-02T18:45:13.626Z,63.30
2019-05-02T18:47:42.342Z,63.90
2019-05-02T18:50:13.841Z,64.10
2019-05-02T18:52:43.251Z,64.30
2019-05-02T18:55:12.703Z,64.80
2019-05-02T18:57:42.706Z,65.00
2019-05-02T19:00:12.183Z,66.10
2019-05-02T19:02:42.414Z,65.90
2019-05-02T19:05:19.011Z,65.80
2019-05-02T19:07:42.850Z,66.30
2019-05-02T19:10:12.033Z,66.80
2019-05-02T19:12:42.045Z,66.80
2019-05-02T19:15:11.003Z,67.20
2019-05-02T19:21:31.032Z,67.70
2019-05-02T19:23:57.408Z,67.70
2019-05-02T19:26:25.885Z,67.60
2019-05-02T19:28:56.389Z,68.00
2019-05-02T19:31:25.846Z,68.10
2019-05-02T19:33:54.846Z,69.10
2019-05-02T19:36:27.500Z,73.10
2019-05-02T19:38:57.394Z,76.10
2019-05-02T19:41:23.894Z,82.10
2019-05-02T19:43:53.370Z,90.40
2019-05-02T19:46:24.532Z,95.10
2019-05-02T19:48:52.272Z,99.90
2019-05-02T19:51:22.453Z,99.90
2019-05-02T19:53:58.805Z,99.90
2019-05-02T19:56:21.963Z,99.90
2019-05-02T19:58:52.153Z,99.90
2019-05-02T20:01:23.052Z,99.90
2019-05-02T20:03:52.053Z,99.90
2019-05-02T20:06:22.075Z,99.90
2019-05-02T20:08:52.510Z,99.90
2019-05-02T20:11:21.940Z,99.90
2019-05-02T20:13:50.483Z,99.90
2019-05-02T20:16:23.635Z,99.90
2019-05-02T20:18:52.574Z,99.90
2019-05-02T20:21:27.334Z,99.90
2019-05-02T20:23:53.121Z,99.90
2019-05-02T20:26:22.188Z,99.90
2019-05-02T20:28:52.622Z,99.90
2019-05-02T20:31:21.706Z,99.90
2019-05-02T20:33:51.913Z,99.90
2019-05-02T20:36:22.629Z,99.90
2019-05-02T20:38:52.533Z,99.90
2019-05-02T20:41:22.405Z,99.90
2019-05-02T20:43:51.678Z,99.90
2019-05-02T20:46:21.924Z,99.90
2019-05-02T20:48:52.379Z,99.90
2019-05-02T20:51:22.577Z,99.90
2019-05-02T20:53:52.585Z,99.90
2019-05-02T20:56:23.044Z,99.90
2019-05-02T20:58:52.639Z,99.90
2019-05-02T21:01:21.394Z,99.90
2019-05-02T21:03:52.066Z,99.90
2019-05-02T21:06:40.753Z,99.90
2019-05-02T21:09:06.650Z,99.90
2019-05-02T21:11:35.338Z,99.90
2019-05-02T21:14:04.002Z,99.90
2019-05-02T21:16:32.604Z,99.90
2019-05-02T21:19:02.242Z,99.90
2019-05-02T21:21:32.964Z,99.90
2019-05-02T21:24:02.059Z,99.90
2019-05-02T21:26:32.647Z,99.90
2019-05-02T21:29:00.746Z,99.90
2019-05-02T21:31:29.230Z,99.90
2019-05-02T21:33:57.763Z,99.90
2019-05-02T21:36:26.316Z,99.90
2019-05-02T21:38:54.816Z,99.90
2019-05-02T21:41:23.478Z,99.90
2019-05-02T21:43:52.038Z,99.90
2019-05-02T21:46:22.340Z,99.90
2019-05-02T21:48:52.632Z,99.90
2019-05-02T21:51:37.863Z,99.90
2019-05-02T21:54:07.980Z,99.90
2019-05-02T21:56:52.098Z,99.90
2019-05-02T21:59:22.339Z,99.90
2019-05-02T22:01:52.308Z,99.90
2019-05-02T22:04:22.511Z,99.90
2019-05-02T22:06:52.212Z,99.90
2019-05-02T22:09:22.860Z,99.90
2019-05-02T22:11:52.036Z,99.90
2019-05-02T22:14:22.284Z,99.90
2019-05-02T22:16:52.813Z,99.90
2019-05-02T22:19:21.309Z,99.90
2019-05-02T22:21:49.727Z,99.90
2019-05-02T22:24:18.238Z,99.90
2019-05-02T22:26:46.813Z,99.90
2019-05-02T22:29:15.243Z,99.90
2019-05-02T22:31:43.660Z,99.90
2019-05-02T22:34:12.857Z,99.90
2019-05-02T22:36:42.375Z,99.90
2019-05-02T22:39:18.293Z,99.90
2019-05-02T22:41:46.730Z,99.90
2019-05-02T22:44:15.157Z,99.90
2019-05-02T22:46:44.305Z,99.90
2019-05-02T22:49:15.202Z,99.90
2019-05-02T22:51:44.136Z,99.90
2019-05-02T22:54:24.252Z,99.90
2019-05-02T22:56:43.081Z,99.90
2019-05-02T22:59:11.560Z,99.90
2019-05-02T23:01:41.984Z,99.90
2019-05-02T23:04:12.501Z,99.90
2019-05-02T23:06:43.983Z,99.90
2019-05-02T23:09:12.616Z,99.90
2019-05-02T23:11:42.599Z,99.90
2019-05-02T23:14:11.378Z,99.90
2019-05-02T23:16:42.256Z,99.90
2019-05-02T23:19:11.995Z,99.90
2019-05-02T23:21:42.181Z,99.90
2019-05-02T23:24:14.483Z,99.90
2019-05-02T23:26:51.823Z,99.90
2019-05-02T23:29:22.438Z,99.90
2019-05-02T23:31:51.785Z,99.90
2019-05-02T23:34:23.294Z,99.90
2019-05-02T23:36:52.210Z,99.90
2019-05-02T23:39:20.907Z,99.90
2019-05-02T23:41:49.324Z,99.90
2019-05-02T23:44:18.231Z,99.90
2019-05-02T23:46:46.905Z,99.90
2019-05-02T23:49:15.473Z,99.90
2019-05-02T23:51:43.990Z,99.90
2019-05-02T23:54:13.043Z,99.90
2019-05-02T23:56:42.989Z,99.90
2019-05-02T23:59:12.104Z,99.90
